Time;durP1;ratioP1;P1;durP2;ratioP2;P2;SDS_P1;SDS_P2;PMS_P1;PMS_P2;Temp;Humidity;BMP_temperature;BMP_pressure;BME280_temperature;BME280_humidity;BME280_pressure;Samples;Min_cycle;Max_cycle;Signal;HPM_P1;HPM_P2
2023/06/10 00:00:13;;;;;;;7.65;6.72;;;;;;;20.80;100.00;100546.69;675383;29;1411;-79
2023/06/10 00:00:34;;;;;;;8.18;7.18;;;;;;;20.83;100.00;100548.34;676709;29;1001;-81
2023/06/10 00:00:55;;;;;;;7.88;7.07;;;;;;;20.82;100.00;100542.16;675526;29;1211;-79
2023/06/10 00:01:17;;;;;;;7.50;6.80;;;;;;;20.83;100.00;100540.38;674991;29;3620;-80
2023/06/10 00:01:38;;;;;;;7.93;6.95;;;;;;;20.79;100.00;100544.13;676746;29;1042;-80
2023/06/10 00:01:59;;;;;;;7.65;6.85;;;;;;;20.77;100.00;100545.97;681460;29;1437;-80
2023/06/10 00:02:20;;;;;;;7.90;7.10;;;;;;;20.76;100.00;100545.13;680555;29;1629;-78
2023/06/10 00:02:42;;;;;;;7.82;7.00;;;;;;;20.78;100.00;100539.72;679552;29;1164;-78
2023/06/10 00:03:04;;;;;;;7.75;6.95;;;;;;;20.72;100.00;100546.22;677475;29;1511;-79
2023/06/10 00:03:26;;;;;;;7.88;7.07;;;;;;;20.75;100.00;100543.38;677700;29;1313;-79
2023/06/10 00:03:47;;;;;;;8.20;6.72;;;;;;;20.68;100.00;100541.97;674184;29;1440;-79
2023/06/10 00:04:08;;;;;;;7.90;6.75;;;;;;;20.71;100.00;100545.34;673735;29;1341;-79
2023/06/10 00:04:29;;;;;;;8.35;6.82;;;;;;;20.67;100.00;100543.75;677228;29;1370;-79
2023/06/10 00:04:50;;;;;;;7.70;6.90;;;;;;;20.63;100.00;100542.19;673933;29;1069;-80
2023/06/10 00:05:11;;;;;;;8.27;6.72;;;;;;;20.65;100.00;100542.09;672904;29;1264;-79
2023/06/10 00:05:32;;;;;;;8.73;6.85;;;;;;;20.67;100.00;100535.78;675148;29;1174;-81
2023/06/10 00:05:53;;;;;;;8.52;7.38;;;;;;;20.82;100.00;100544.81;673232;29;1311;-80
2023/06/10 00:06:14;;;;;;;7.75;7.00;;;;;;;20.80;100.00;100540.53;674096;29;953;-80
2023/06/10 00:06:35;;;;;;;7.45;6.50;;;;;;;20.74;100.00;100542.53;675579;29;1073;-79
2023/06/10 00:06:57;;;;;;;8.07;6.60;;;;;;;20.74;100.00;100542.53;674673;29;1136;-79
2023/06/10 00:07:18;;;;;;;8.07;6.88;;;;;;;20.71;100.00;100541.81;679785;29;892;-79
2023/06/10 00:07:41;;;;;;;8.25;7.03;;;;;;;20.67;100.00;100541.09;679469;29;1276;-79
2023/06/10 00:08:07;;;;;;;7.68;6.88;;;;;;;20.71;100.00;100536.50;677913;29;1383;-80
2023/06/10 00:08:31;;;;;;;7.38;6.68;;;;;;;20.69;100.00;100539.25;678953;29;838;-79
2023/06/10 00:08:52;;;;;;;8.15;7.35;;;;;;;20.74;100.00;100536.34;680766;29;1372;-79
2023/06/10 00:09:14;;;;;;;8.32;7.10;;;;;;;20.79;100.00;100537.00;679317;29;1202;-81
2023/06/10 00:09:36;;;;;;;7.95;6.80;;;;;;;20.75;100.00;100538.06;681265;29;1969;-79
2023/06/10 00:09:58;;;;;;;8.00;6.70;;;;;;;20.77;100.00;100553.94;672873;29;1264;-79
2023/06/10 00:10:18;;;;;;;7.43;6.65;;;;;;;20.79;100.00;100533.47;674702;29;1486;-79
2023/06/10 00:10:39;;;;;;;7.60;6.80;;;;;;;20.79;100.00;100539.66;675545;29;1220;-79
2023/06/10 00:11:00;;;;;;;7.78;6.93;;;;;;;20.77;100.00;100535.34;674869;29;1211;-79
2023/06/10 00:11:21;;;;;;;7.72;7.03;;;;;;;20.81;100.00;100536.91;676761;29;1317;-80
2023/06/10 00:11:42;;;;;;;8.00;6.80;;;;;;;20.86;100.00;100545.53;676070;29;1247;-79
2023/06/10 00:12:09;;;;;;;7.85;6.70;;;;;;;20.80;100.00;100535.22;676179;29;1166;-79
2023/06/10 00:12:31;;;;;;;8.65;6.93;;;;;;;20.74;100.00;100546.97;675687;29;5404;-79
2023/06/10 00:12:51;;;;;;;7.90;6.95;;;;;;;20.70;100.00;100535.66;673891;29;1352;-79
2023/06/10 00:13:12;;;;;;;8.00;7.20;;;;;;;20.73;100.00;100534.66;675032;29;783;-79
2023/06/10 00:13:33;;;;;;;7.75;6.90;;;;;;;20.69;100.00;100543.72;676469;29;870;-80
2023/06/10 00:13:58;;;;;;;7.40;6.63;;;;;;;20.70;100.00;100538.31;674097;29;1359;-79
2023/06/10 00:14:20;;;;;;;7.63;6.82;;;;;;;20.77;100.00;100530.91;668662;29;1085;-79
2023/06/10 00:14:42;;;;;;;7.25;6.47;;;;;;;20.80;100.00;100541.38;673243;29;1297;-79
2023/06/10 00:15:04;;;;;;;7.40;6.70;;;;;;;20.78;100.00;100531.75;673129;29;2036;-81
2023/06/10 00:15:25;;;;;;;7.70;6.90;;;;;;;20.80;100.00;100536.06;674552;29;3646;-80
2023/06/10 00:15:46;;;;;;;7.53;6.60;;;;;;;20.82;100.00;100538.63;679038;29;1339;-80
2023/06/10 00:16:06;;;;;;;7.40;6.60;;;;;;;20.79;100.00;100537.00;677850;29;1395;-80
2023/06/10 00:16:27;;;;;;;7.57;6.80;;;;;;;20.83;100.00;100543.03;677803;29;1822;-80
2023/06/10 00:16:49;;;;;;;8.20;7.20;;;;;;;20.87;100.00;100541.94;674842;29;1270;-79
2023/06/10 00:17:10;;;;;;;9.00;7.03;;;;;;;20.91;100.00;100540.84;675056;29;1621;-80
2023/06/10 00:17:32;;;;;;;8.85;6.65;;;;;;;20.89;100.00;100537.38;680620;29;1377;-79
2023/06/10 00:17:54;;;;;;;7.72;6.60;;;;;;;21.00;100.00;100542.16;678613;29;1250;-79
2023/06/10 00:18:16;;;;;;;8.43;6.70;;;;;;;20.96;100.00;100540.59;675446;29;1543;-80
2023/06/10 00:18:38;;;;;;;9.65;6.93;;;;;;;21.02;100.00;100541.16;678622;29;909;-79
2023/06/10 00:19:00;;;;;;;7.68;6.88;;;;;;;21.00;100.00;100540.38;671541;29;1382;-81
2023/06/10 00:19:25;;;;;;;8.13;6.85;;;;;;;20.96;100.00;100544.13;672576;29;1370;-80
2023/06/10 00:19:46;;;;;;;9.00;6.85;;;;;;;20.94;100.00;100538.03;671818;29;1359;-79
2023/06/10 00:20:11;;;;;;;7.93;6.75;;;;;;;20.88;100.00;100538.34;671966;29;847;-80
2023/06/10 00:20:32;;;;;;;7.65;6.70;;;;;;;20.88;100.00;100538.34;677351;29;1228;-79
2023/06/10 00:20:54;;;;;;;7.63;6.80;;;;;;;20.80;100.00;100540.53;676737;29;1313;-80
2023/06/10 00:21:15;;;;;;;9.18;6.55;;;;;;;20.74;100.00;100537.22;674907;29;1488;-79
2023/06/10 00:21:40;;;;;;;8.57;6.77;;;;;;;20.78;100.00;100547.69;674444;29;1342;-80
2023/06/10 00:22:00;;;;;;;7.78;6.97;;;;;;;20.74;100.00;100555.81;670411;29;1414;-80
2023/06/10 00:22:22;;;;;;;7.50;6.80;;;;;;;20.84;100.00;100540.28;669300;29;1238;-80
2023/06/10 00:22:45;;;;;;;7.78;6.97;;;;;;;20.82;100.00;100538.63;669120;29;953;-79
2023/06/10 00:23:08;;;;;;;8.48;6.80;;;;;;;20.84;100.00;100537.63;672188;29;1377;-79
2023/06/10 00:23:30;;;;;;;7.72;6.65;;;;;;;20.87;100.00;100536.63;680724;29;1354;-80
2023/06/10 00:23:51;;;;;;;8.88;7.07;;;;;;;20.87;100.00;100541.94;680922;29;925;-80
2023/06/10 00:24:12;;;;;;;9.07;6.97;;;;;;;20.83;100.00;100541.22;679858;29;1254;-80
2023/06/10 00:24:32;;;;;;;8.30;7.40;;;;;;;20.85;100.00;100533.16;679441;29;1409;-80
2023/06/10 00:24:53;;;;;;;7.87;7.00;;;;;;;20.81;100.00;100531.59;678364;29;1135;-79
2023/06/10 00:25:13;;;;;;;7.95;6.80;;;;;;;20.85;100.00;100539.34;679800;29;815;-79
2023/06/10 00:25:34;;;;;;;7.53;6.80;;;;;;;20.75;100.00;100536.31;675204;29;1124;-80
2023/06/10 00:25:54;;;;;;;7.22;6.53;;;;;;;20.75;100.00;100533.66;674267;29;1218;-80
2023/06/10 00:26:15;;;;;;;8.03;6.77;;;;;;;20.84;100.00;100532.31;672198;29;1163;-79
2023/06/10 00:26:41;;;;;;;7.70;6.65;;;;;;;20.92;100.00;100532.78;672993;29;1304;-79
2023/06/10 00:27:01;;;;;;;7.78;6.97;;;;;;;20.92;100.00;100539.88;674286;29;806;-78
2023/06/10 00:27:22;;;;;;;7.73;6.93;;;;;;;20.86;100.00;100537.56;677691;29;1369;-79
2023/06/10 00:27:42;;;;;;;7.68;6.88;;;;;;;20.82;100.00;100526.19;676722;29;1274;-80
2023/06/10 00:28:02;;;;;;;7.53;6.70;;;;;;;20.75;100.00;100528.34;681043;29;1324;-79
2023/06/10 00:28:23;;;;;;;7.57;6.68;;;;;;;20.71;100.00;100529.41;681550;29;804;-79
2023/06/10 00:28:44;;;;;;;8.50;7.00;;;;;;;20.72;100.00;100539.09;673408;29;1119;-79
2023/06/10 00:29:06;;;;;;;7.55;6.75;;;;;;;20.72;100.00;100530.28;674344;29;1547;-79
2023/06/10 00:29:36;;;;;;;7.53;6.72;;;;;;;20.74;100.00;100534.56;674464;29;1922;-79
2023/06/10 00:29:57;;;;;;;7.40;6.70;;;;;;;20.77;100.00;100538.88;672336;29;1146;-78
2023/06/10 00:30:18;;;;;;;7.40;6.68;;;;;;;20.79;100.00;100539.66;674902;29;1513;-79
2023/06/10 00:30:39;;;;;;;7.40;6.70;;;;;;;20.77;100.00;100530.03;670540;29;1403;-79
2023/06/10 00:30:59;;;;;;;7.88;6.70;;;;;;;20.84;100.00;100531.47;672496;29;1401;-79
2023/06/10 00:31:20;;;;;;;7.80;6.97;;;;;;;20.72;100.00;100531.13;677249;29;1466;-79
2023/06/10 00:31:40;;;;;;;8.00;7.03;;;;;;;20.75;100.00;100541.63;674304;29;1218;-79
2023/06/10 00:32:01;;;;;;;7.90;7.10;;;;;;;20.81;100.00;100534.25;671335;29;1195;-80
2023/06/10 00:32:21;;;;;;;8.25;7.07;;;;;;;20.73;100.00;100542.63;675918;29;1219;-79
2023/06/10 00:32:42;;;;;;;8.50;6.87;;;;;;;20.81;100.00;100531.59;678636;29;1239;-79
2023/06/10 00:33:02;;;;;;;8.07;6.70;;;;;;;20.79;100.00;100528.16;676173;29;1147;-80
2023/06/10 00:33:23;;;;;;;8.43;6.78;;;;;;;20.73;100.00;100537.31;677491;29;1078;-79
2023/06/10 00:33:43;;;;;;;8.27;7.00;;;;;;;20.71;100.00;100537.38;674511;29;1207;-80
2023/06/10 00:34:04;;;;;;;8.43;6.70;;;;;;;20.73;100.00;100532.84;673730;29;819;-79
2023/06/10 00:34:25;;;;;;;8.35;6.90;;;;;;;20.65;100.00;100532.31;673294;29;1061;-81
2023/06/10 00:34:46;;;;;;;7.77;6.80;;;;;;;20.74;100.00;100536.34;676529;29;1374;-79
2023/06/10 00:35:07;;;;;;;7.72;6.93;;;;;;;20.68;100.00;100534.84;681426;29;1272;-79
2023/06/10 00:35:27;;;;;;;7.37;6.67;;;;;;;20.70;100.00;100530.34;680976;29;1191;-80
2023/06/10 00:35:47;;;;;;;7.82;6.90;;;;;;;20.75;100.00;100527.44;682534;29;964;-80
2023/06/10 00:36:08;;;;;;;7.90;7.10;;;;;;;20.70;100.00;100535.66;683144;29;1603;-79
2023/06/10 00:36:29;;;;;;;7.35;6.47;;;;;;;20.64;100.00;100529.75;678851;29;1342;-79
2023/06/10 00:36:50;;;;;;;8.00;6.50;;;;;;;20.68;100.00;100542.81;675353;29;1224;-79
2023/06/10 00:37:11;;;;;;;7.47;6.50;;;;;;;20.61;100.00;100536.06;677122;29;771;-79
2023/06/10 00:37:34;;;;;;;7.40;6.63;;;;;;;20.71;100.00;100536.50;681716;29;1166;-79
2023/06/10 00:37:55;;;;;;;7.57;6.78;;;;;;;20.68;100.00;100537.50;680417;29;1423;-79
2023/06/10 00:38:15;;;;;;;7.70;6.70;;;;;;;20.66;100.00;100539.38;678613;29;830;-79
2023/06/10 00:38:37;;;;;;;7.60;6.75;;;;;;;20.66;100.00;100533.22;679053;29;1273;-79
2023/06/10 00:38:58;;;;;;;7.70;6.90;;;;;;;20.60;100.00;100537.00;677443;29;1037;-79
2023/06/10 00:39:18;;;;;;;7.55;6.65;;;;;;;20.61;100.00;100537.88;678444;29;1417;-79
2023/06/10 00:39:39;;;;;;;9.13;7.30;;;;;;;20.54;100.00;100539.97;677133;29;1130;-79
2023/06/10 00:39:59;;;;;;;8.23;6.78;;;;;;;20.56;100.00;100538.06;676648;29;1263;-79
2023/06/10 00:40:20;;;;;;;7.63;6.60;;;;;;;20.52;100.00;100536.50;675228;29;1184;-78
2023/06/10 00:40:41;;;;;;;7.97;6.97;;;;;;;20.58;100.00;100538.88;671410;29;1320;-79
2023/06/10 00:41:01;;;;;;;7.80;7.00;;;;;;;20.60;100.00;100537.00;670050;29;854;-79
2023/06/10 00:41:22;;;;;;;7.57;6.70;;;;;;;20.57;100.00;100540.69;671066;29;1142;-79
2023/06/10 00:41:42;;;;;;;7.57;6.77;;;;;;;20.57;100.00;100535.38;674192;29;1310;-79
2023/06/10 00:42:06;;;;;;;7.72;6.93;;;;;;;20.56;100.00;100538.06;674779;29;1008;-78
2023/06/10 00:42:27;;;;;;;7.43;6.70;;;;;;;20.47;100.00;100535.88;673779;29;929;-79
2023/06/10 00:42:48;;;;;;;9.00;7.22;;;;;;;20.54;100.00;100534.66;673389;29;1773;-79
2023/06/10 00:43:09;;;;;;;8.00;7.03;;;;;;;20.48;100.00;100535.81;674155;29;1336;-79
2023/06/10 00:43:29;;;;;;;8.75;7.00;;;;;;;20.45;100.00;100535.97;679695;29;1246;-79
2023/06/10 00:43:49;;;;;;;7.70;6.77;;;;;;;20.40;100.00;100538.81;669637;29;1199;-79
2023/06/10 00:44:10;;;;;;;7.80;7.00;;;;;;;20.45;100.00;100535.09;673731;29;1486;-79
2023/06/10 00:44:33;;;;;;;8.23;7.03;;;;;;;20.37;100.00;100533.66;674945;29;1172;-78
2023/06/10 00:44:57;;;;;;;7.45;6.63;;;;;;;20.34;100.00;100538.25;671494;29;1069;-79
2023/06/10 00:45:17;;;;;;;8.18;6.90;;;;;;;20.31;100.00;100533.09;672668;29;834;-79
2023/06/10 00:45:40;;;;;;;7.70;6.75;;;;;;;20.26;100.00;100530.66;676257;29;1035;-79
2023/06/10 00:46:01;;;;;;;8.75;6.90;;;;;;;20.28;100.00;100542.06;679060;29;959;-78
2023/06/10 00:46:26;;;;;;;7.75;6.57;;;;;;;20.28;100.00;100534.09;678036;29;1372;-79
2023/06/10 00:46:47;;;;;;;8.70;6.80;;;;;;;20.27;100.00;100537.72;675850;29;1256;-79
2023/06/10 00:47:07;;;;;;;8.10;6.70;;;;;;;20.30;100.00;100537.56;680396;29;1243;-79
2023/06/10 00:47:29;;;;;;;7.82;6.70;;;;;;;20.22;100.00;100537.91;680663;29;890;-80
2023/06/10 00:47:50;;;;;;;7.55;6.60;;;;;;;20.29;100.00;100532.31;678792;29;945;-79
2023/06/10 00:48:10;;;;;;;7.90;6.90;;;;;;;20.22;100.00;100529.94;676804;29;1321;-79
2023/06/10 00:48:32;;;;;;;8.43;7.23;;;;;;;20.24;100.00;100538.72;677036;29;1190;-80
2023/06/10 00:48:53;;;;;;;7.65;6.82;;;;;;;20.21;100.00;100543.28;676483;29;1457;-80
2023/06/10 00:49:13;;;;;;;9.18;7.03;;;;;;;20.29;100.00;100540.28;670551;29;1341;-79
2023/06/10 00:49:34;;;;;;;7.63;6.77;;;;;;;20.25;100.00;100539.56;671517;29;1903;-79
2023/06/10 00:49:55;;;;;;;7.88;6.95;;;;;;;20.25;100.00;100537.75;674077;29;1417;-79
2023/06/10 00:50:15;;;;;;;8.02;6.85;;;;;;;20.24;100.00;100543.13;675410;29;988;-80
2023/06/10 00:50:39;;;;;;;7.30;6.60;;;;;;;20.17;100.00;100537.28;680138;29;978;-79
2023/06/10 00:51:00;;;;;;;7.32;6.40;;;;;;;20.18;100.00;100540.78;682155;29;1151;-79
2023/06/10 00:51:21;;;;;;;7.28;6.40;;;;;;;20.21;100.00;100544.16;677030;29;1403;-79
2023/06/10 00:51:42;;;;;;;7.53;6.82;;;;;;;20.22;100.00;100539.72;676272;29;1365;-79
2023/06/10 00:52:05;;;;;;;8.82;6.97;;;;;;;20.20;100.00;100542.44;670984;29;1295;-79
2023/06/10 00:52:28;;;;;;;9.35;6.97;;;;;;;20.19;100.00;100537.19;674086;29;1061;-79
2023/06/10 00:52:50;;;;;;;7.85;6.90;;;;;;;20.18;100.00;100540.78;676917;29;1290;-79
2023/06/10 00:53:10;;;;;;;7.70;6.90;;;;;;;20.21;100.00;100533.56;676277;29;1278;-79
2023/06/10 00:53:32;;;;;;;7.20;6.50;;;;;;;20.19;100.00;100534.56;675231;29;1228;-79
2023/06/10 00:53:53;;;;;;;7.95;6.90;;;;;;;20.16;100.00;100537.31;671954;29;985;-79
2023/06/10 00:54:14;;;;;;;9.30;6.70;;;;;;;20.12;100.00;100544.59;672287;29;966;-79
2023/06/10 00:54:36;;;;;;;8.68;6.90;;;;;;;20.18;100.00;100546.94;670263;29;1375;-79
2023/06/10 00:54:59;;;;;;;7.70;6.70;;;;;;;20.17;100.00;100541.72;669776;29;930;-79
2023/06/10 00:55:20;;;;;;;7.38;6.63;;;;;;;20.15;100.00;100547.09;673557;29;1194;-80
2023/06/10 00:55:44;;;;;;;7.72;6.93;;;;;;;20.16;100.00;100545.28;676953;29;1250;-79
2023/06/10 00:56:05;;;;;;;7.80;7.00;;;;;;;20.18;100.00;100543.44;678168;29;1156;-80
2023/06/10 00:56:25;;;;;;;8.20;7.20;;;;;;;20.18;100.00;100541.63;679901;29;1122;-79
2023/06/10 00:56:47;;;;;;;8.00;6.68;;;;;;;20.18;100.00;100541.63;677213;29;1390;-79
2023/06/10 00:57:07;;;;;;;7.78;6.85;;;;;;;20.14;100.00;100541.84;675229;29;1230;-79
2023/06/10 00:57:29;;;;;;;7.70;6.90;;;;;;;20.14;100.00;100549.81;674149;29;3306;-79
2023/06/10 00:57:51;;;;;;;7.22;6.53;;;;;;;20.19;100.00;100545.16;671379;29;1365;-79
2023/06/10 00:58:12;;;;;;;7.50;6.80;;;;;;;20.13;100.00;100542.78;679178;29;1126;-81
2023/06/10 00:58:32;;;;;;;8.05;7.25;;;;;;;20.18;100.00;100543.44;676248;29;1155;-80
2023/06/10 00:58:53;;;;;;;8.23;7.38;;;;;;;20.19;100.00;100539.84;676409;29;1233;-79
2023/06/10 00:59:14;;;;;;;8.17;7.03;;;;;;;20.18;100.00;100543.44;676628;29;905;-79
2023/06/10 00:59:35;;;;;;;7.50;6.70;;;;;;;20.20;100.00;100539.78;676320;29;1205;-79
2023/06/10 00:59:57;;;;;;;8.07;6.70;;;;;;;20.29;100.00;100541.13;673775;29;1108;-79
2023/06/10 01:00:17;;;;;;;7.85;6.85;;;;;;;20.18;100.00;100535.47;677593;29;1192;-80
2023/06/10 01:00:38;;;;;;;7.85;6.53;;;;;;;20.17;100.00;100547.91;674922;29;1139;-80
2023/06/10 01:00:59;;;;;;;7.85;7.05;;;;;;;20.29;100.00;100546.44;675342;29;1180;-79
2023/06/10 01:01:22;;;;;;;7.80;7.00;;;;;;;20.26;100.00;100551.91;672364;29;2623;-80
2023/06/10 01:01:43;;;;;;;8.07;6.97;;;;;;;20.23;100.00;100544.94;672874;29;1073;-79
2023/06/10 01:02:03;;;;;;;8.55;7.18;;;;;;;20.20;100.00;100541.56;674914;29;1363;-79
2023/06/10 01:02:24;;;;;;;8.93;7.20;;;;;;;20.24;100.00;100544.00;675043;29;1468;-79
2023/06/10 01:02:46;;;;;;;8.87;7.13;;;;;;;20.35;100.00;100546.16;673268;29;1045;-80
2023/06/10 01:03:10;;;;;;;8.00;7.10;;;;;;;20.36;100.00;100545.22;674677;29;1034;-79
2023/06/10 01:03:32;;;;;;;7.57;6.80;;;;;;;20.27;100.00;100543.00;673281;29;902;-79
2023/06/10 01:03:55;;;;;;;7.88;6.93;;;;;;;20.23;100.00;100550.25;676035;29;1210;-80
2023/06/10 01:04:19;;;;;;;7.70;6.80;;;;;;;20.19;100.00;100540.72;674882;29;1430;-80
2023/06/10 01:04:40;;;;;;;8.38;7.30;;;;;;;20.21;100.00;100548.59;675330;29;1338;-79
2023/06/10 01:05:01;;;;;;;8.07;6.93;;;;;;;20.19;100.00;100545.16;674178;29;1175;-80
2023/06/10 01:05:23;;;;;;;7.88;7.03;;;;;;;20.17;100.00;100549.66;676573;29;826;-80
2023/06/10 01:05:55;;;;;;;8.05;6.90;;;;;;;20.22;100.00;100551.16;672932;29;950;-80
2023/06/10 01:06:47;;;;;;;8.35;6.90;;;;;;;20.22;100.00;100547.66;676402;29;1332;-79
2023/06/10 01:07:26;;;;;;;7.53;6.72;;;;;;;20.19;100.00;100546.00;678126;29;846;-80
2023/06/10 01:08:25;;;;;;;7.32;6.47;;;;;;;20.16;100.00;100540.84;677375;29;1075;-79
2023/06/10 01:09:04;;;;;;;7.47;6.70;;;;;;;20.07;100.00;100543.94;681639;29;1016;-80
2023/06/10 01:09:38;;;;;;;7.85;7.05;;;;;;;20.05;100.00;100548.47;682921;29;1032;-80
2023/06/10 01:10:20;;;;;;;8.25;7.00;;;;;;;20.06;100.00;100544.84;677903;29;1146;-79
2023/06/10 01:10:51;;;;;;;8.68;7.03;;;;;;;20.07;100.00;100547.44;675696;29;1817;-80
2023/06/10 01:11:21;;;;;;;9.60;6.95;;;;;;;20.02;100.00;100538.84;675685;29;1273;-79
2023/06/10 01:11:49;;;;;;;7.80;7.00;;;;;;;20.01;100.00;100545.06;674706;29;1271;-80
2023/06/10 01:12:39;;;;;;;9.00;7.47;;;;;;;20.11;100.00;100542.00;675526;29;1257;-78
2023/06/10 01:13:11;;;;;;;8.10;7.18;;;;;;;20.07;100.00;100538.63;677196;29;1401;-80
2023/06/10 01:13:35;;;;;;;7.60;6.85;;;;;;;20.05;100.00;100538.69;671694;29;1388;-80
2023/06/10 01:13:58;;;;;;;7.70;6.90;;;;;;;19.96;100.00;100544.41;671377;29;1434;-81
2023/06/10 01:14:19;;;;;;;7.90;7.10;;;;;;;20.06;100.00;100543.09;673070;29;1199;-79
2023/06/10 01:14:44;;;;;;;7.90;7.07;;;;;;;19.99;100.00;100543.41;671892;29;993;-79
2023/06/10 01:15:06;;;;;;;7.70;6.93;;;;;;;20.05;100.00;100538.69;673133;29;790;-79
2023/06/10 01:15:26;;;;;;;7.50;6.70;;;;;;;20.03;100.00;100539.69;671237;29;1328;-79
2023/06/10 01:15:47;;;;;;;7.93;6.72;;;;;;;20.05;100.00;100538.69;668888;29;1442;-79
2023/06/10 01:16:07;;;;;;;8.60;7.00;;;;;;;20.04;100.00;100542.28;669668;29;1230;-80
2023/06/10 01:16:28;;;;;;;7.70;6.88;;;;;;;20.05;100.00;100548.47;674180;29;1347;-80
2023/06/10 01:16:49;;;;;;;7.60;6.80;;;;;;;20.01;100.00;100547.72;671370;29;1196;-79
2023/06/10 01:17:11;;;;;;;7.88;6.90;;;;;;;20.01;100.00;100544.22;671922;29;1365;-80
2023/06/10 01:17:31;;;;;;;8.02;6.72;;;;;;;20.01;100.00;100539.78;669856;29;1207;-79
2023/06/10 01:17:58;;;;;;;7.88;6.97;;;;;;;19.90;100.00;100534.09;668946;29;946;-80
2023/06/10 01:18:19;;;;;;;9.13;7.43;;;;;;;19.94;100.00;100538.34;668729;29;910;-79
2023/06/10 01:18:41;;;;;;;7.85;7.05;;;;;;;19.95;100.00;100539.19;671376;29;1358;-79
2023/06/10 01:19:03;;;;;;;8.20;7.40;;;;;;;19.95;100.00;100540.06;676488;29;1346;-79
2023/06/10 01:19:24;;;;;;;8.40;7.40;;;;;;;19.93;100.00;100544.56;678424;29;1247;-80
2023/06/10 01:19:44;;;;;;;7.90;6.90;;;;;;;19.94;100.00;100545.41;676590;29;1174;-79
2023/06/10 01:20:11;;;;;;;7.20;6.50;;;;;;;19.92;100.00;100548.16;677945;29;987;-79
2023/06/10 01:20:32;;;;;;;7.78;6.78;;;;;;;19.89;100.00;100548.28;671955;29;1156;-80
2023/06/10 01:20:53;;;;;;;8.85;6.97;;;;;;;19.85;100.00;100538.75;670950;29;1312;-79
2023/06/10 01:21:21;;;;;;;9.00;7.00;;;;;;;19.82;100.00;100536.25;672049;29;1190;-80
2023/06/10 01:21:42;;;;;;;8.00;7.13;;;;;;;19.86;100.00;100537.81;671313;29;1408;-79
2023/06/10 01:22:03;;;;;;;7.57;6.77;;;;;;;19.89;100.00;100545.63;677349;29;1319;-80
2023/06/10 01:22:26;;;;;;;7.70;6.90;;;;;;;19.89;100.00;100532.38;677212;29;1183;-80
2023/06/10 01:22:47;;;;;;;7.53;6.70;;;;;;;19.84;100.00;100534.38;672818;29;1365;-79
2023/06/10 01:23:09;;;;;;;7.70;6.90;;;;;;;19.86;100.00;100540.47;675956;29;1522;-80
2023/06/10 01:23:30;;;;;;;7.88;7.00;;;;;;;19.84;100.00;100537.91;675664;29;909;-79
2023/06/10 01:23:53;;;;;;;8.05;7.20;;;;;;;19.83;100.00;100543.28;675871;29;1456;-79
2023/06/10 01:24:14;;;;;;;8.05;7.07;;;;;;;19.80;100.00;100544.28;675548;29;1235;-80
2023/06/10 01:24:35;;;;;;;8.15;6.95;;;;;;;19.74;100.00;100539.19;679095;29;1261;-80
2023/06/10 01:24:58;;;;;;;7.78;6.93;;;;;;;19.78;100.00;100537.28;676556;29;1395;-80
2023/06/10 01:25:20;;;;;;;7.65;6.85;;;;;;;19.76;100.00;100541.78;674657;29;1254;-79
2023/06/10 01:26:10;;;;;;;7.95;7.13;;;;;;;19.69;100.00;100543.88;672055;29;1378;-79
2023/06/10 01:26:33;;;;;;;9.18;7.00;;;;;;;19.66;100.00;100541.31;670528;29;1239;-79
2023/06/10 01:27:00;;;;;;;8.55;7.07;;;;;;;19.71;100.00;100542.00;675050;29;1502;-80
2023/06/10 01:27:22;;;;;;;7.93;6.97;;;;;;;19.70;100.00;100543.78;678020;29;1370;-79
2023/06/10 01:27:45;;;;;;;8.15;6.80;;;;;;;19.72;100.00;100549.88;677942;29;1538;-79
2023/06/10 01:28:32;;;;;;;7.60;6.60;;;;;;;19.74;100.00;100544.50;679069;29;972;-79
2023/06/10 01:28:59;;;;;;;7.68;6.88;;;;;;;19.71;100.00;100544.66;675984;29;949;-79
2023/06/10 01:29:37;;;;;;;8.02;7.10;;;;;;;19.73;100.00;100548.09;677560;29;1286;-80
2023/06/10 01:30:04;;;;;;;8.02;6.90;;;;;;;19.89;100.00;100545.63;680177;29;1295;-79
2023/06/10 01:30:30;;;;;;;8.80;7.03;;;;;;;19.82;100.00;100542.41;679759;29;1317;-80
2023/06/10 01:31:00;;;;;;;7.60;6.70;;;;;;;19.84;100.00;100547.63;671934;29;1357;-80
2023/06/10 01:31:59;;;;;;;9.15;7.00;;;;;;;19.79;100.00;100539.00;676690;29;1455;-80
2023/06/10 01:32:37;;;;;;;7.82;7.03;;;;;;;19.86;100.00;100538.69;676816;29;918;-80
2023/06/10 01:33:01;;;;;;;8.15;7.03;;;;;;;19.81;100.00;100539.81;678164;29;1384;-81
2023/06/10 01:33:28;;;;;;;7.68;6.70;;;;;;;19.90;100.00;100544.72;673116;29;1253;-80
2023/06/10 01:33:52;;;;;;;8.30;6.85;;;;;;;19.85;100.00;100547.56;668980;29;1578;-80
2023/06/10 01:34:16;;;;;;;8.00;6.82;;;;;;;19.80;100.00;100541.63;669727;29;2357;-80
2023/06/10 01:34:39;;;;;;;7.68;6.80;;;;;;;19.82;100.00;100544.19;669785;29;962;-80
2023/06/10 01:35:01;;;;;;;8.25;7.20;;;;;;;19.76;100.00;100541.78;674521;29;1179;-81
2023/06/10 01:35:25;;;;;;;7.85;6.97;;;;;;;19.75;100.00;100540.94;674748;29;984;-81
2023/06/10 01:35:50;;;;;;;8.43;7.00;;;;;;;19.66;100.00;100551.94;673854;29;953;-79
2023/06/10 01:36:12;;;;;;;7.95;7.00;;;;;;;19.66;100.00;100536.91;675972;29;882;-79
2023/06/10 01:36:34;;;;;;;8.20;7.03;;;;;;;19.69;100.00;100541.22;677309;29;1528;-79
2023/06/10 01:36:58;;;;;;;8.68;7.25;;;;;;;19.68;100.00;100535.03;678889;29;1079;-81
2023/06/10 01:37:21;;;;;;;7.63;6.80;;;;;;;19.65;100.00;100547.59;677168;29;1347;-80
2023/06/10 01:37:45;;;;;;;8.13;6.95;;;;;;;19.61;100.00;100549.50;672844;29;1344;-79
2023/06/10 01:38:06;;;;;;;7.45;6.63;;;;;;;19.60;100.00;100547.78;672539;29;887;-80
2023/06/10 01:38:30;;;;;;;8.20;7.18;;;;;;;19.61;100.00;100544.19;676787;29;1342;-79
2023/06/10 01:38:53;;;;;;;7.68;6.88;;;;;;;19.60;100.00;100542.47;674360;29;1270;-79
2023/06/10 01:39:20;;;;;;;7.60;6.80;;;;;;;19.54;100.00;100542.75;676920;29;1583;-81
2023/06/10 01:39:42;;;;;;;7.85;6.60;;;;;;;19.55;100.00;100544.47;676754;29;1380;-80
2023/06/10 01:40:05;;;;;;;7.55;6.63;;;;;;;19.54;100.00;100543.59;669771;29;1269;-79
2023/06/10 01:40:26;;;;;;;8.20;7.07;;;;;;;19.55;100.00;100539.19;669267;29;1045;-79
2023/06/10 01:40:49;;;;;;;7.77;6.97;;;;;;;19.53;100.00;100541.03;671472;29;1219;-79
2023/06/10 01:41:12;;;;;;;8.60;6.85;;;;;;;19.51;100.00;100538.44;674781;29;1300;-79
2023/06/10 01:41:33;;;;;;;8.32;7.03;;;;;;;19.52;100.00;100545.47;677072;29;1409;-80
2023/06/10 01:41:54;;;;;;;8.27;7.03;;;;;;;19.51;100.00;100543.75;677858;29;985;-80
2023/06/10 01:42:15;;;;;;;7.90;7.10;;;;;;;19.53;100.00;100548.97;677724;29;1349;-79
2023/06/10 01:42:36;;;;;;;7.22;6.43;;;;;;;19.51;100.00;100541.09;673112;29;1205;-80
2023/06/10 01:42:56;;;;;;;7.60;6.80;;;;;;;19.50;100.00;100536.72;674680;29;1262;-80
2023/06/10 01:43:17;;;;;;;7.97;6.80;;;;;;;19.48;100.00;100546.53;673998;29;1251;-80
2023/06/10 01:43:38;;;;;;;8.37;6.57;;;;;;;19.47;100.00;100542.16;674227;29;1101;-80
2023/06/10 01:43:59;;;;;;;8.82;6.85;;;;;;;19.44;100.00;100542.28;674543;29;1252;-79
2023/06/10 01:44:21;;;;;;;7.63;6.63;;;;;;;19.44;100.00;100549.38;677836;29;998;-80
2023/06/10 01:44:41;;;;;;;8.38;6.88;;;;;;;19.48;100.00;100548.31;676248;29;1133;-80
2023/06/10 01:45:02;;;;;;;8.25;6.78;;;;;;;19.51;100.00;100541.09;675127;29;1379;-80
2023/06/10 01:45:23;;;;;;;8.43;6.80;;;;;;;19.49;100.00;100548.25;677008;29;1174;-79
2023/06/10 01:45:44;;;;;;;7.93;6.70;;;;;;;19.48;100.00;100538.59;674063;29;1205;-80
2023/06/10 01:46:05;;;;;;;7.70;6.90;;;;;;;19.50;100.00;100542.00;673550;29;1159;-79
2023/06/10 01:46:25;;;;;;;8.27;7.10;;;;;;;19.49;100.00;100542.09;672424;29;1040;-80
2023/06/10 01:46:46;;;;;;;8.63;6.75;;;;;;;19.45;100.00;100543.16;668604;29;1451;-80
2023/06/10 01:47:06;;;;;;;7.90;6.70;;;;;;;19.47;100.00;100536.00;675152;29;1296;-79
2023/06/10 01:47:27;;;;;;;7.60;6.80;;;;;;;19.46;100.00;100542.22;674710;29;1199;-79
2023/06/10 01:47:47;;;;;;;8.00;6.70;;;;;;;19.46;100.00;100535.13;675972;29;1159;-80
2023/06/10 01:48:08;;;;;;;8.20;6.60;;;;;;;19.41;100.00;100542.41;676923;29;1279;-80